Time;durP1;ratioP1;P1;durP2;ratioP2;P2;SDS_P1;SDS_P2;PMS_P1;PMS_P2;Temp;Humidity;BMP_temperature;BMP_pressure;BME280_temperature;BME280_humidity;BME280_pressure;Samples;Min_cycle;Max_cycle;Signal;HPM_P1;HPM_P2
2021/03/30 00:00:10;;;;;;;5.53;3.83;;;9.40;99.90;;;9.32;77.03;102300.22;4153045;28;20466;-73
2021/03/30 00:02:11;;;;;;;7.55;4.03;;;9.40;99.90;;;9.15;77.77;102281.31;4153295;28;20025;-74
2021/03/30 00:04:12;;;;;;;4.93;3.30;;;9.40;99.90;;;9.18;78.00;102292.47;4152176;28;20026;-74
2021/03/30 00:06:13;;;;;;;6.25;3.30;;;9.30;99.90;;;9.14;77.79;102283.09;4135847;28;20030;-74
2021/03/30 00:08:14;;;;;;;7.00;4.32;;;9.30;99.90;;;9.18;77.63;102286.34;4153193;28;20025;-74
2021/03/30 00:10:22;;;;;;;6.40;3.63;;;9.30;99.90;;;9.09;77.38;102287.84;4153335;28;20378;-74
2021/03/30 00:12:23;;;;;;;8.15;4.00;;;9.20;99.90;;;9.11;78.24;102290.41;4151971;28;20037;-74
2021/03/30 00:14:23;;;;;;;7.05;3.95;;;9.20;99.90;;;9.07;78.24;102287.13;4153175;28;20022;-73
2021/03/30 00:16:24;;;;;;;7.80;3.92;;;9.20;99.90;;;8.98;79.12;102285.16;4149388;28;20026;-73
2021/03/30 00:18:26;;;;;;;6.28;3.58;;;9.20;99.90;;;8.96;79.16;102283.59;4141014;28;20033;-73
2021/03/30 00:20:27;;;;;;;7.38;3.85;;;9.20;99.90;;;8.99;79.05;102284.19;4153144;28;20030;-74
2021/03/30 00:22:28;;;;;;;5.88;4.05;;;9.10;99.90;;;9.01;78.57;102289.34;4152875;28;20116;-74
2021/03/30 00:24:29;;;;;;;6.30;3.53;;;9.10;99.90;;;9.02;78.10;102289.22;4152863;28;20026;-73
2021/03/30 00:26:34;;;;;;;9.63;4.20;;;9.10;99.90;;;8.96;79.05;102276.50;4153055;28;20030;-74
2021/03/30 00:28:35;;;;;;;7.88;3.55;;;9.00;99.90;;;8.90;79.21;102288.31;4151683;28;20029;-74
2021/03/30 00:30:36;;;;;;;6.20;3.90;;;9.10;99.90;;;8.96;78.96;102281.75;4152476;28;20037;-74
2021/03/30 00:32:37;;;;;;;5.85;3.65;;;9.10;99.90;;;8.88;79.61;102277.06;4152718;28;20064;-74
2021/03/30 00:34:39;;;;;;;4.20;3.58;;;9.10;99.90;;;8.90;79.79;102280.41;4153057;28;20026;-73
2021/03/30 00:36:39;;;;;;;10.82;4.10;;;9.00;99.90;;;8.92;79.11;102282.09;4152891;28;20030;-73
2021/03/30 00:38:40;;;;;;;7.60;3.58;;;9.00;99.90;;;8.90;78.86;102283.03;4152084;28;20033;-73
2021/03/30 00:40:42;;;;;;;6.85;3.67;;;8.90;99.90;;;8.94;78.12;102274.94;4152845;28;20068;-74
2021/03/30 00:42:43;;;;;;;8.65;3.90;;;9.00;99.90;;;8.87;79.00;102283.25;4152713;28;20540;-74
2021/03/30 00:44:45;;;;;;;6.60;4.05;;;8.90;99.90;;;8.83;79.03;102275.69;4152681;28;20026;-74
2021/03/30 00:46:48;;;;;;;7.68;3.60;;;8.90;99.90;;;8.73;79.39;102279.91;4152832;28;20041;-74
2021/03/30 00:48:51;;;;;;;6.40;3.53;;;8.90;99.90;;;8.70;79.65;102280.97;4151416;28;20543;-74
2021/03/30 00:50:52;;;;;;;7.40;3.78;;;8.90;99.90;;;8.59;80.54;102272.13;4151653;28;20034;-74
2021/03/30 00:52:53;;;;;;;6.53;4.18;;;8.80;99.90;;;8.65;80.70;102276.97;4151649;28;20022;-74
2021/03/30 00:54:54;;;;;;;7.78;5.15;;;8.80;99.90;;;8.55;81.06;102255.72;4152562;28;20025;-73
2021/03/30 00:56:55;;;;;;;7.25;4.07;;;8.80;99.90;;;8.58;81.22;102273.06;4152528;28;20504;-74
2021/03/30 00:58:57;;;;;;;5.40;3.88;;;8.80;99.90;;;8.62;81.46;102270.16;4152621;28;20122;-74
2021/03/30 01:00:58;;;;;;;6.82;4.72;;;8.70;99.90;;;8.61;81.23;102276.34;4151261;28;20030;-74
2021/03/30 01:02:59;;;;;;;5.82;4.28;;;8.80;99.90;;;8.62;81.04;102272.78;4152497;28;20028;-74
2021/03/30 01:05:00;;;;;;;11.20;5.25;;;8.70;99.90;;;8.62;80.04;102272.78;4152495;28;20065;-74
2021/03/30 01:07:02;;;;;;;5.55;4.65;;;8.70;99.90;;;8.59;81.42;102272.97;4152565;28;20093;-74
2021/03/30 01:09:34;;;;;;;6.80;4.47;;;8.80;99.90;;;8.56;80.79;102267.09;4152425;28;20029;-74
2021/03/30 01:12:05;;;;;;;9.35;4.32;;;8.80;99.90;;;8.50;81.54;102262.25;4151038;28;20030;-74
2021/03/30 01:14:20;;;;;;;8.52;4.68;;;8.70;99.90;;;8.46;81.35;102260.75;4152420;28;20048;-74
2021/03/30 01:16:30;;;;;;;7.88;4.10;;;8.60;99.90;;;8.56;81.57;102259.19;4151956;28;20531;-74
2021/03/30 01:18:55;;;;;;;12.10;4.95;;;8.70;99.90;;;8.51;81.98;102258.69;4152246;28;20398;-74
2021/03/30 01:21:05;;;;;;;5.78;3.92;;;8.70;99.90;;;8.45;82.26;102259.94;4152281;28;20083;-74
2021/03/30 01:23:21;;;;;;;7.68;4.18;;;8.60;99.90;;;8.40;81.96;102254.16;4152281;28;20026;-74
2021/03/30 01:25:25;;;;;;;7.78;4.70;;;8.60;99.90;;;8.41;81.57;102247.09;4152316;28;20026;-74
2021/03/30 01:27:50;;;;;;;10.88;4.32;;;8.60;99.90;;;8.40;81.57;102245.41;4151128;28;20549;-74
2021/03/30 01:29:54;;;;;;;8.73;4.20;;;8.60;99.90;;;8.19;81.98;102229.28;4152069;28;20026;-73
2021/03/30 01:32:00;;;;;;;6.55;3.90;;;8.50;99.90;;;8.33;81.69;102245.81;4150958;28;20096;-74
2021/03/30 01:34:03;;;;;;;8.95;4.00;;;8.50;99.90;;;8.36;81.71;102259.72;4150956;28;20624;-74
2021/03/30 01:36:06;;;;;;;7.13;4.38;;;8.50;99.90;;;8.38;81.85;102242.06;4151039;28;20029;-73
2021/03/30 01:38:11;;;;;;;5.15;4.15;;;8.60;99.90;;;8.41;81.72;102253.22;4151097;28;20040;-73
2021/03/30 01:40:19;;;;;;;8.80;4.32;;;8.50;99.90;;;8.35;81.82;102248.38;4152021;28;20036;-73
2021/03/30 01:42:24;;;;;;;8.55;4.10;;;8.50;99.90;;;8.27;82.63;102250.66;4151916;28;20034;-74
2021/03/30 01:44:26;;;;;;;6.70;4.00;;;8.50;99.90;;;8.24;82.59;102253.50;4152133;28;20084;-74
2021/03/30 01:46:31;;;;;;;6.35;4.03;;;8.40;99.90;;;8.28;82.87;102257.59;4151817;28;20038;-74
2021/03/30 01:48:32;;;;;;;8.98;3.90;;;8.40;99.90;;;8.16;83.69;102253.16;4150482;28;20076;-74
2021/03/30 01:50:34;;;;;;;8.07;5.05;;;8.40;99.90;;;8.18;82.96;102241.56;4150597;28;20026;-74
2021/03/30 01:52:36;;;;;;;6.13;4.85;;;8.40;99.90;;;8.21;83.22;102249.25;4135771;28;20023;-73
2021/03/30 01:54:38;;;;;;;8.95;4.50;;;8.40;99.90;;;8.17;82.75;102242.53;4135875;28;20038;-74
2021/03/30 01:56:41;;;;;;;9.88;5.05;;;8.40;99.90;;;8.21;82.56;102251.06;4150755;28;20021;-74
2021/03/30 01:58:43;;;;;;;5.90;4.03;;;8.40;99.90;;;8.21;82.70;102246.63;4135795;28;20030;-74
2021/03/30 02:00:44;;;;;;;6.38;4.05;;;8.40;99.90;;;8.27;82.03;102254.13;4150817;28;20464;-74
2021/03/30 02:02:46;;;;;;;7.18;4.00;;;8.40;99.90;;;8.23;82.04;102247.38;4135725;28;20026;-74
2021/03/30 02:04:50;;;;;;;6.47;3.97;;;8.40;99.90;;;8.22;82.03;102244.84;4150854;28;20408;-74
2021/03/30 02:06:52;;;;;;;7.60;5.55;;;8.40;99.90;;;8.11;81.69;102223.72;4150559;28;20051;-74
2021/03/30 02:08:57;;;;;;;8.43;4.38;;;8.40;99.90;;;8.21;82.18;102246.63;4150735;28;20037;-74
2021/03/30 02:10:58;;;;;;;8.77;4.05;;;8.30;99.90;;;8.17;82.03;102228.56;4150399;28;20034;-74
2021/03/30 02:13:01;;;;;;;6.95;4.25;;;8.40;99.90;;;8.30;81.68;102234.72;4135570;28;20080;-73
2021/03/30 02:15:04;;;;;;;7.13;4.97;;;8.40;99.90;;;8.25;82.45;102234.13;4135357;28;20053;-73
2021/03/30 02:17:16;;;;;;;8.90;5.38;;;8.40;99.90;;;8.26;81.87;102238.44;4135780;28;20030;-73
2021/03/30 02:19:40;;;;;;;5.40;4.50;;;8.40;99.90;;;8.11;82.76;102235.06;4150424;28;20492;-73
2021/03/30 02:21:51;;;;;;;6.95;4.05;;;8.30;99.90;;;8.11;82.42;102234.22;4149041;28;20116;-73
2021/03/30 02:23:54;;;;;;;7.00;4.47;;;8.30;99.90;;;8.06;82.91;102231.06;4135588;28;20511;-73
2021/03/30 02:25:57;;;;;;;6.10;4.40;;;8.30;99.90;;;8.10;82.64;102230.75;4150321;28;20026;-73
2021/03/30 02:28:08;;;;;;;5.47;4.07;;;8.30;99.90;;;8.03;82.34;102213.75;4150610;28;20393;-74
2021/03/30 02:30:13;;;;;;;6.63;4.43;;;8.30;99.90;;;8.13;82.61;102234.97;4150062;28;20030;-74
2021/03/30 02:32:15;;;;;;;8.70;4.53;;;8.30;99.90;;;8.15;81.84;102227.84;4150452;28;20065;-74
2021/03/30 02:34:18;;;;;;;6.25;4.38;;;8.30;99.90;;;8.04;82.26;102219.81;4150387;28;20025;-74
2021/03/30 02:36:23;;;;;;;9.30;5.07;;;8.30;99.90;;;7.95;82.84;102228.31;4150504;28;20030;-74
2021/03/30 02:38:28;;;;;;;7.07;4.35;;;8.30;99.90;;;7.96;83.07;102227.38;4134157;28;20058;-74
2021/03/30 02:40:30;;;;;;;7.10;4.95;;;8.20;99.90;;;8.00;83.44;102224.44;4135574;28;20406;-74
2021/03/30 02:42:33;;;;;;;12.43;4.88;;;8.20;99.90;;;8.03;82.94;102229.50;4135237;28;20470;-74
2021/03/30 02:44:35;;;;;;;6.32;4.30;;;8.20;99.90;;;8.04;82.95;102227.69;4133951;28;20053;-74
2021/03/30 02:46:41;;;;;;;6.97;4.65;;;8.20;99.90;;;7.99;82.99;102224.53;4134289;28;20034;-74
2021/03/30 02:48:43;;;;;;;9.57;5.15;;;8.20;99.90;;;8.01;82.35;102222.66;4149300;28;20108;-74
2021/03/30 02:50:46;;;;;;;9.63;5.03;;;8.20;99.90;;;8.04;81.94;102225.91;4151638;28;20041;-74
2021/03/30 02:52:48;;;;;;;8.27;5.03;;;8.20;99.90;;;7.98;82.17;102228.09;4150523;28;20547;-74
2021/03/30 02:54:49;;;;;;;7.13;5.03;;;8.20;99.90;;;7.98;82.35;102221.06;4151666;28;20057;-74
2021/03/30 02:56:50;;;;;;;7.38;4.90;;;8.20;99.90;;;7.94;82.79;102219.63;4151382;28;20026;-74
2021/03/30 02:58:52;;;;;;;11.27;5.18;;;8.10;99.90;;;7.95;82.69;102217.78;4151704;28;20026;-74
2021/03/30 03:00:55;;;;;;;8.40;4.75;;;8.20;99.90;;;7.92;83.39;102224.09;4152144;28;20525;-74
2021/03/30 03:02:59;;;;;;;5.10;4.30;;;8.20;99.90;;;7.93;83.06;102223.16;4153361;28;20101;-74
2021/03/30 03:05:01;;;;;;;9.93;4.15;;;8.10;99.90;;;7.92;82.50;102221.47;4153355;28;20122;-74
2021/03/30 03:07:02;;;;;;;7.47;4.95;;;8.10;99.90;;;7.94;82.38;102214.34;4154442;28;20417;-74
2021/03/30 03:09:04;;;;;;;7.90;4.70;;;8.20;99.90;;;7.98;82.31;102217.59;4153072;28;20036;-74
2021/03/30 03:11:07;;;;;;;6.57;4.22;;;8.10;99.90;;;8.02;82.74;102219.94;4153236;28;20030;-74
2021/03/30 03:13:18;;;;;;;5.57;4.82;;;8.10;99.90;;;8.02;82.65;102221.72;4153053;28;20493;-74
2021/03/30 03:15:21;;;;;;;6.30;4.93;;;8.10;99.90;;;8.03;82.05;102226.88;4152729;28;20022;-73
2021/03/30 03:17:23;;;;;;;6.22;4.47;;;8.20;99.90;;;8.09;81.96;102233.50;4153124;28;20026;-73
2021/03/30 03:19:24;;;;;;;6.35;5.10;;;8.20;99.90;;;8.06;81.85;102216.16;4152973;28;20026;-73
2021/03/30 03:21:26;;;;;;;6.70;4.45;;;8.30;99.90;;;7.97;82.57;102226.44;4152939;28;20084;-74
2021/03/30 03:23:28;;;;;;;6.93;4.82;;;8.20;99.90;;;7.94;82.44;102216.97;4136912;28;20101;-74
2021/03/30 03:25:29;;;;;;;6.13;4.15;;;8.20;99.90;;;8.02;81.95;102227.81;4153131;28;20021;-74
2021/03/30 03:27:30;;;;;;;6.93;4.70;;;8.20;99.90;;;8.03;82.72;102212.88;4154125;28;20037;-74
2021/03/30 03:29:31;;;;;;;6.82;4.68;;;8.20;99.90;;;8.03;81.13;102226.03;4152557;28;20112;-74
2021/03/30 03:31:32;;;;;;;7.57;5.15;;;8.30;99.90;;;7.96;82.19;102219.50;4154162;28;20508;-73
2021/03/30 03:33:33;;;;;;;7.85;4.45;;;8.20;99.90;;;8.11;81.24;102226.34;4153912;28;20030;-73
2021/03/30 03:35:34;;;;;;;6.45;4.40;;;8.20;99.90;;;7.98;82.22;102217.59;4152745;28;20022;-74
2021/03/30 03:37:45;;;;;;;5.43;4.03;;;8.20;99.90;;;8.05;80.53;102224.13;4153773;28;20026;-73
2021/03/30 03:39:46;;;;;;;5.40;4.30;;;8.20;99.90;;;7.96;81.81;102222.13;4153757;28;20022;-73
2021/03/30 03:41:47;;;;;;;6.85;4.30;;;8.10;99.90;;;7.91;81.50;102226.84;4153709;28;20055;-74
2021/03/30 03:43:50;;;;;;;5.47;4.20;;;8.10;99.90;;;7.72;82.61;102207.06;4153830;28;20033;-74
2021/03/30 03:45:50;;;;;;;7.65;4.45;;;8.10;99.90;;;7.76;83.34;102226.91;4153538;28;20034;-74
2021/03/30 03:47:52;;;;;;;6.93;4.20;;;8.00;99.90;;;7.64;83.71;102211.13;4153676;28;20056;-74
2021/03/30 03:49:52;;;;;;;6.53;3.97;;;8.00;99.90;;;7.63;83.41;102207.66;4153709;28;20473;-74
2021/03/30 03:52:09;;;;;;;8.75;5.28;;;8.00;99.90;;;7.74;82.96;102220.91;4152378;28;20026;-74
2021/03/30 03:54:16;;;;;;;7.18;3.90;;;7.90;99.90;;;7.70;82.81;102208.09;4152528;28;20033;-74
2021/03/30 03:56:28;;;;;;;7.85;4.57;;;7.90;99.90;;;7.71;83.04;102209.78;4152298;28;20026;-74
2021/03/30 03:58:37;;;;;;;6.50;4.57;;;7.90;99.90;;;7.55;83.60;102214.38;4152194;28;20111;-74
2021/03/30 04:00:41;;;;;;;7.88;4.65;;;7.80;99.90;;;7.60;83.68;102214.91;4152052;28;20026;-73
2021/03/30 04:02:54;;;;;;;7.28;4.20;;;7.80;99.90;;;7.52;83.82;102204.91;4153629;28;20041;-74
2021/03/30 04:05:02;;;;;;;6.50;4.38;;;7.80;99.90;;;7.65;82.97;102211.03;4152294;28;20097;-74
2021/03/30 04:07:05;;;;;;;6.78;3.90;;;7.90;99.90;;;7.51;83.75;102205.84;4153324;28;20032;-74
2021/03/30 04:09:11;;;;;;;7.15;5.03;;;7.80;99.90;;;7.51;83.62;102208.47;4152447;28;20539;-73
2021/03/30 04:11:12;;;;;;;6.75;4.60;;;7.80;99.90;;;7.46;84.86;102210.56;4152129;28;20041;-74
2021/03/30 04:13:18;;;;;;;6.50;4.60;;;7.70;99.90;;;7.49;83.74;102202.50;4153295;28;20033;-75
2021/03/30 04:15:23;;;;;;;10.07;4.80;;;7.70;99.90;;;7.39;84.11;102206.66;4135558;28;20149;-74
2021/03/30 04:17:24;;;;;;;9.02;4.97;;;7.70;99.90;;;7.39;83.93;102193.53;4153046;28;20025;-74
2021/03/30 04:19:25;;;;;;;7.63;4.65;;;7.70;99.90;;;7.48;84.39;102205.19;4153268;28;20029;-74
2021/03/30 04:21:37;;;;;;;8.68;4.97;;;7.70;99.90;;;7.58;84.00;102199.25;4153125;28;20026;-74
2021/03/30 04:23:44;;;;;;;7.00;4.60;;;7.70;99.90;;;7.55;83.18;102202.09;4152021;28;20034;-74
2021/03/30 04:25:45;;;;;;;5.93;4.28;;;7.70;99.90;;;7.57;83.64;102204.59;4153092;28;20022;-74
2021/03/30 04:27:46;;;;;;;6.45;4.50;;;7.70;99.90;;;7.45;83.60;102203.63;4152936;28;20026;-75
2021/03/30 04:29:47;;;;;;;8.90;6.05;;;7.70;99.90;;;7.23;84.00;102192.81;4151664;28;20034;-75
2021/03/30 04:31:48;;;;;;;8.73;4.65;;;7.60;99.90;;;7.35;83.53;102212.22;4152964;28;20405;-74
2021/03/30 04:33:49;;;;;;;7.50;4.82;;;7.60;99.90;;;7.29;84.57;102202.09;4152978;28;20061;-75
2021/03/30 04:35:49;;;;;;;7.15;5.32;;;7.60;99.90;;;7.24;84.67;102199.75;4152757;28;20096;-75
2021/03/30 04:37:50;;;;;;;8.18;5.28;;;7.50;99.90;;;7.37;84.34;102205.06;4152802;28;20448;-75
2021/03/30 04:39:51;;;;;;;11.05;5.97;;;7.50;99.90;;;7.27;84.36;102185.59;4152871;28;20157;-74
2021/03/30 04:41:52;;;;;;;10.35;5.82;;;7.50;99.90;;;7.35;84.60;102205.16;4152767;28;20065;-74
2021/03/30 04:43:53;;;;;;;6.53;5.05;;;7.60;99.90;;;7.32;84.26;102200.09;4152734;28;20030;-75
2021/03/30 04:45:54;;;;;;;6.03;4.90;;;7.50;99.90;;;7.26;84.29;102197.88;4152701;28;20037;-75
2021/03/30 04:47:55;;;;;;;5.93;4.88;;;7.50;99.90;;;7.30;84.10;102190.66;4152672;28;20072;-74
2021/03/30 04:49:56;;;;;;;6.90;5.55;;;7.50;99.90;;;7.14;84.27;102193.41;4152701;28;20026;-74
2021/03/30 04:51:57;;;;;;;8.32;4.47;;;7.50;99.90;;;7.17;84.98;102211.59;4152538;28;20033;-74
2021/03/30 04:53:58;;;;;;;7.97;5.32;;;7.40;99.90;;;7.18;84.69;102210.66;4152623;28;20034;-74
2021/03/30 04:55:59;;;;;;;7.03;5.00;;;7.40;99.90;;;7.15;84.70;102218.72;4152583;28;20492;-74
2021/03/30 04:58:00;;;;;;;9.68;5.05;;;7.40;99.90;;;7.21;84.09;102208.69;4152756;28;20058;-75
2021/03/30 05:00:03;;;;;;;8.27;5.10;;;7.40;99.90;;;7.07;85.16;102208.72;4152333;28;20070;-74
2021/03/30 05:02:04;;;;;;;9.65;6.22;;;7.30;99.90;;;7.06;84.83;102203.56;4150575;28;20037;-74
2021/03/30 05:04:06;;;;;;;9.40;6.18;;;7.40;99.90;;;7.16;85.46;102217.78;4152680;28;20551;-74
2021/03/30 05:06:07;;;;;;;6.38;5.25;;;7.30;99.90;;;7.13;85.47;102218.00;4152495;28;20057;-75
2021/03/30 05:08:08;;;;;;;7.38;5.18;;;7.40;99.90;;;6.99;85.32;102207.53;4152411;28;20065;-74
2021/03/30 05:10:10;;;;;;;8.80;5.40;;;7.30;99.90;;;7.06;85.46;102220.16;4151293;28;20033;-75
2021/03/30 05:12:11;;;;;;;10.05;5.53;;;7.30;99.90;;;7.14;84.74;102227.53;4152297;28;20092;-74
2021/03/30 05:14:12;;;;;;;8.50;5.20;;;7.40;99.90;;;7.15;85.35;102219.56;4152352;28;20022;-74
2021/03/30 05:16:13;;;;;;;8.77;5.68;;;7.30;99.90;;;7.13;85.34;102218.84;4152154;28;20029;-75
2021/03/30 05:18:14;;;;;;;7.88;6.03;;;7.40;99.90;;;7.29;83.83;102216.03;4152306;28;20030;-74
2021/03/30 05:20:15;;;;;;;8.68;5.63;;;7.40;99.90;;;7.28;84.70;102221.41;4151128;28;20022;-75
2021/03/30 05:22:16;;;;;;;8.18;5.10;;;7.40;99.90;;;7.30;84.32;102225.63;4152332;28;20029;-74
2021/03/30 05:24:17;;;;;;;7.18;4.95;;;7.40;99.90;;;7.22;84.32;102223.50;4151720;28;20049;-74
2021/03/30 05:26:18;;;;;;;8.20;5.68;;;7.40;99.90;;;7.21;84.55;102223.56;4152414;28;20315;-74
2021/03/30 05:28:19;;;;;;;7.75;5.22;;;7.40;99.90;;;7.23;83.53;102221.69;4152437;28;20439;-74
2021/03/30 05:30:20;;;;;;;8.10;5.50;;;7.40;99.90;;;7.21;84.37;102227.06;4151986;28;20030;-74
2021/03/30 05:32:22;;;;;;;8.93;5.80;;;7.40;99.90;;;7.17;84.83;102229.94;4152041;28;20400;-74
2021/03/30 05:34:23;;;;;;;7.78;5.53;;;7.40;99.90;;;7.17;83.89;102238.66;4152088;28;20022;-74
2021/03/30 05:36:24;;;;;;;7.38;5.47;;;7.40;99.90;;;7.00;84.58;102225.78;4152393;28;20040;-74
2021/03/30 05:38:25;;;;;;;8.20;5.47;;;7.40;99.90;;;7.00;85.11;102230.19;4134835;28;20497;-74
2021/03/30 05:40:26;;;;;;;12.10;5.97;;;7.30;99.90;;;7.05;84.97;102233.34;4152318;28;20081;-74
2021/03/30 05:42:27;;;;;;;9.45;6.35;;;7.30;99.90;;;7.06;84.88;102232.44;4134495;28;20034;-74
2021/03/30 05:44:29;;;;;;;10.98;5.10;;;7.30;99.90;;;7.16;84.83;102237.00;4150821;28;20065;-74
2021/03/30 05:46:31;;;;;;;9.13;5.90;;;7.30;99.90;;;7.22;84.68;102238.41;4151793;28;20053;-75
2021/03/30 05:48:35;;;;;;;7.90;5.53;;;7.40;99.90;;;7.24;84.35;102244.38;4151795;28;20077;-75
2021/03/30 05:50:36;;;;;;;8.43;5.45;;;7.40;99.90;;;7.23;83.87;102246.16;4151919;28;20032;-75
2021/03/30 05:52:51;;;;;;;9.25;6.78;;;7.40;99.90;;;7.18;83.30;102242.16;4151980;28;20038;-75
2021/03/30 05:54:54;;;;;;;;;;;7.40;99.90;;;7.26;82.35;102249.53;4152451;28;20393;-75
2021/03/30 05:56:59;;;;;;;7.70;5.25;;;7.40;99.90;;;7.20;83.48;102235.00;4134241;28;19910;-76
2021/03/30 05:59:00;;;;;;;;;;;7.40;99.90;;;7.06;84.05;102245.53;4150694;28;20030;-72
2021/03/30 06:01:05;;;;;;;6.65;4.97;;;7.40;99.90;;;7.08;84.49;102254.16;4151574;28;20331;-75
2021/03/30 06:03:14;;;;;;;10.50;5.90;;;7.40;99.90;;;7.10;84.47;102250.50;4151751;28;20110;-75
2021/03/30 06:05:17;;;;;;;7.75;5.30;;;7.40;99.90;;;7.07;84.93;102249.84;4134322;28;20046;-75
2021/03/30 06:07:18;;;;;;;7.50;6.28;;;7.30;99.90;;;7.07;84.71;102244.63;4151754;28;20052;-76
2021/03/30 06:09:19;;;;;;;9.27;5.97;;;7.30;99.90;;;7.11;84.82;102252.19;4151640;28;20026;-76
2021/03/30 06:11:19;;;;;;;8.32;5.75;;;7.40;99.90;;;7.10;85.01;102239.16;4149718;28;20036;-76
2021/03/30 06:13:51;;;;;;;9.35;5.70;;;7.40;99.90;;;7.26;83.15;102239.88;4134299;28;20082;-76
2021/03/30 06:15:52;;;;;;;7.50;5.25;;;7.50;99.90;;;7.30;84.12;102258.88;4134774;28;20053;-76
2021/03/30 06:17:53;;;;;;;7.47;6.00;;;7.60;99.90;;;7.33;84.66;102263.94;4151614;28;20030;-76
2021/03/30 06:19:56;;;;;;;10.90;6.15;;;7.60;99.90;;;7.28;84.65;102272.13;4151365;28;20041;-75
2021/03/30 06:21:57;;;;;;;8.10;6.38;;;7.60;99.90;;;7.27;85.01;102267.81;4150456;28;20224;-75
2021/03/30 06:23:59;;;;;;;10.52;6.80;;;7.60;99.90;;;7.16;84.87;102242.25;4151672;28;20040;-76
2021/03/30 06:26:01;;;;;;;10.20;5.90;;;7.60;99.90;;;7.41;83.86;102275.63;4150355;28;20026;-76
2021/03/30 06:28:27;;;;;;;9.75;6.30;;;7.70;99.90;;;7.38;83.94;102259.25;4151819;28;20022;-76
2021/03/30 06:30:31;;;;;;;9.15;6.00;;;7.70;99.90;;;7.42;84.14;102274.69;4151243;28;20517;-76
2021/03/30 06:32:32;;;;;;;12.77;7.30;;;7.70;99.90;;;7.49;83.83;102268.13;4151441;28;20037;-76
2021/03/30 06:34:34;;;;;;;10.23;6.90;;;7.80;99.90;;;7.50;84.32;102259.28;4151659;28;20049;-76
2021/03/30 06:36:35;;;;;;;9.05;6.28;;;7.80;99.90;;;7.54;83.56;102263.41;4152282;28;20049;-76
2021/03/30 06:38:56;;;;;;;7.68;5.55;;;7.90;99.90;;;7.64;84.31;102267.13;4154598;28;20022;-76
2021/03/30 06:40:57;;;;;;;9.63;6.97;;;7.90;99.90;;;7.71;83.18;102263.16;4154029;28;20088;-76
2021/03/30 06:43:13;;;;;;;11.82;6.63;;;8.00;99.90;;;7.77;83.80;102265.38;4152474;28;20453;-76
2021/03/30 06:45:25;;;;;;;646.13;484.20;;;8.10;99.90;;;7.90;83.30;102267.19;4153919;28;20288;-74
2021/03/30 06:47:26;;;;;;;13.63;10.63;;;8.20;99.90;;;8.01;82.97;102270.78;4153230;28;20056;-74
2021/03/30 06:49:31;;;;;;;9.77;5.97;;;8.30;99.90;;;7.95;84.09;102258.06;4154559;28;20038;-74
2021/03/30 06:51:38;;;;;;;;;;;8.30;99.90;;;8.09;84.43;102275.56;4154835;28;20030;-74
2021/03/30 06:53:39;;;;;;;7.10;5.18;;;8.40;99.90;;;8.22;84.17;102265.88;4153260;28;19915;-74
2021/03/30 06:55:50;;;;;;;8.18;5.20;;;8.50;99.90;;;8.22;84.98;102260.63;4154264;28;20025;-74
2021/03/30 06:57:51;;;;;;;8.23;5.40;;;8.60;99.90;;;8.30;84.81;102266.25;4154539;28;20512;-74
2021/03/30 06:59:52;;;;;;;8.30;5.97;;;8.70;99.90;;;8.36;84.20;102257.94;4154079;28;20109;-74
2021/03/30 07:01:57;;;;;;;7.88;5.43;;;8.80;99.90;;;8.46;84.19;102258.97;4153101;28;20017;-74
2021/03/30 07:03:58;;;;;;;6.07;4.75;;;8.90;99.90;;;8.55;84.38;102270.66;4153164;28;20030;-73
2021/03/30 07:06:10;;;;;;;18.00;5.57;;;8.90;99.90;;;8.66;85.69;102262.88;4154479;28;20022;-73
2021/03/30 07:08:16;;;;;;;7.88;4.82;;;9.00;99.90;;;8.77;85.55;102269.06;4154505;28;20022;-73
2021/03/30 07:10:17;;;;;;;11.50;5.25;;;9.10;99.90;;;8.86;85.31;102273.69;4154455;28;20025;-73
2021/03/30 07:12:23;;;;;;;10.43;5.50;;;9.30;99.90;;;8.94;86.32;102267.88;4153115;28;20038;-73
2021/03/30 07:14:24;;;;;;;9.80;5.88;;;9.40;99.90;;;9.12;86.25;102278.91;4153929;28;20083;-74
2021/03/30 07:16:44;;;;;;;8.80;5.85;;;9.50;99.90;;;9.19;86.03;102259.09;4154135;28;20030;-74
2021/03/30 07:18:47;;;;;;;9.32;6.10;;;9.60;99.90;;;9.37;84.17;102271.78;4153247;28;20537;-74
2021/03/30 07:20:58;;;;;;;10.65;5.47;;;9.80;99.90;;;9.44;83.89;102267.72;4153055;28;20081;-73
2021/03/30 07:23:07;;;;;;;10.85;6.20;;;9.90;99.90;;;9.58;83.71;102258.00;4152915;28;20032;-74
2021/03/30 07:25:12;;;;;;;9.90;6.00;;;10.00;99.90;;;9.64;84.02;102276.84;4154022;28;20036;-74
2021/03/30 07:27:20;;;;;;;8.70;6.57;;;10.00;99.90;;;9.79;82.80;102267.78;4154008;28;20026;-74
2021/03/30 07:29:30;;;;;;;13.52;6.95;;;10.20;99.90;;;9.80;83.38;102263.34;4152726;28;20034;-73
2021/03/30 07:31:57;;;;;;;10.70;6.60;;;10.30;99.90;;;9.90;82.92;102273.09;4152892;28;20026;-73
2021/03/30 07:34:13;;;;;;;7.70;5.55;;;10.40;99.90;;;10.25;80.42;102269.63;4152871;28;20087;-74
2021/03/30 07:36:17;;;;;;;8.65;4.75;;;10.60;99.90;;;10.25;80.50;102269.63;4136411;28;20035;-73
2021/03/30 07:38:26;;;;;;;6.45;4.55;;;10.70;99.90;;;10.37;80.34;102263.41;4154036;28;20025;-74
2021/03/30 07:40:27;;;;;;;9.27;4.97;;;10.80;99.90;;;10.55;78.93;102262.00;4154029;28;20030;-74
2021/03/30 07:42:29;;;;;;;9.32;5.40;;;11.00;99.90;;;10.65;79.23;102267.41;4153574;28;20034;-74
2021/03/30 07:44:31;;;;;;;10.20;5.75;;;11.10;99.90;;;10.60;79.04;102230.84;4153743;28;20030;-74
2021/03/30 07:46:32;;;;;;;8.48;4.50;;;11.20;99.90;;;10.89;77.96;102254.94;4136149;28;20390;-74
2021/03/30 07:48:36;;;;;;;8.43;4.90;;;11.30;99.90;;;10.89;77.63;102253.13;4152377;28;20045;-74
2021/03/30 07:51:06;;;;;;;9.00;4.38;;;11.40;99.90;;;11.04;77.03;102256.38;4152424;28;20065;-74
2021/03/30 07:53:07;;;;;;;6.45;4.88;;;11.50;99.90;;;11.09;77.55;102255.03;4153882;28;20469;-73
2021/03/30 07:55:25;;;;;;;11.10;4.82;;;11.60;99.90;;;11.21;76.92;102255.00;4153643;28;20030;-73
2021/03/30 07:57:59;;;;;;;7.20;4.40;;;11.70;99.90;;;11.30;75.30;102259.53;4142324;28;20550;-73
2021/03/30 08:00:00;;;;;;;10.73;5.97;;;11.80;99.90;;;11.45;74.69;102259.16;4149984;28;20109;-73
2021/03/30 08:02:01;;;;;;;8.52;4.95;;;12.00;99.90;;;11.58;75.35;102254.56;4153433;28;20037;-73
2021/03/30 08:04:04;;;;;;;10.88;4.93;;;12.10;99.90;;;11.68;74.84;102260.75;4152466;28;20026;-74
2021/03/30 08:06:19;;;;;;;7.72;4.72;;;12.20;99.90;;;11.78;74.56;102263.50;4153431;28;20044;-73
2021/03/30 08:08:23;;;;;;;9.68;4.97;;;12.30;99.90;;;11.86;74.17;102258.41;4135827;28;20133;-73
2021/03/30 08:10:27;;;;;;;;;;;12.40;99.90;;;11.99;74.19;102261.72;4152856;28;20116;-73
2021/03/30 08:12:29;;;;;;;8.25;4.93;;;12.50;99.90;;;12.11;74.12;102258.06;4153504;28;19917;-73
2021/03/30 08:14:31;;;;;;;10.43;4.55;;;12.70;99.90;;;12.25;73.46;102263.97;4153015;28;20026;-73
2021/03/30 08:16:40;;;;;;;7.88;4.25;;;12.80;99.90;;;12.39;73.02;102258.38;4153361;28;20033;-73
2021/03/30 08:18:43;;;;;;;11.38;5.25;;;12.90;99.90;;;12.48;72.37;102262.88;4153430;28;20397;-73
2021/03/30 08:21:08;;;;;;;6.05;4.15;;;13.00;99.90;;;12.60;72.33;102262.66;4153443;28;20399;-74
2021/03/30 08:23:12;;;;;;;10.20;5.17;;;13.10;99.90;;;12.71;71.15;102251.16;4153138;28;20320;-74
2021/03/30 08:25:24;;;;;;;;;;;13.30;99.90;;;12.76;70.94;102246.28;4153664;28;20017;-74
2021/03/30 08:27:31;;;;;;;5.22;4.00;;;13.50;99.90;;;12.96;70.86;102265.75;4152040;28;20008;-74
2021/03/30 08:29:39;;;;;;;8.98;4.38;;;13.60;99.90;;;13.04;70.44;102266.75;4152980;28;20495;-74
2021/03/30 08:31:48;;;;;;;13.73;4.18;;;13.60;99.90;;;13.18;70.27;102257.59;4153012;28;20493;-74
2021/03/30 08:33:51;;;;;;;5.25;3.90;;;13.80;99.90;;;13.25;69.35;102248.97;4153004;28;20041;-74
2021/03/30 08:35:52;;;;;;;6.90;4.40;;;13.90;99.90;;;13.44;69.89;102266.72;4151755;28;20507;-74
2021/03/30 08:37:53;;;;;;;5.22;4.18;;;14.00;99.90;;;13.47;69.74;102255.81;4153116;28;20026;-73
2021/03/30 08:39:54;;;;;;;5.38;4.22;;;14.10;99.90;;;13.60;69.98;102261.72;4152897;28;20021;-73
2021/03/30 08:42:00;;;;;;;9.52;4.10;;;14.20;99.90;;;13.68;69.89;102256.53;4152910;28;20412;-74
2021/03/30 08:44:41;;;;;;;8.60;4.00;;;14.40;99.90;;;13.87;69.49;102263.66;4152740;28;20234;-74
2021/03/30 08:46:49;;;;;;;6.53;3.58;;;14.50;99.90;;;13.97;68.91;102263.66;4152881;28;20037;-73